Time,TemperatureF,DewpointF,PressureIn,WindDirection,WindDirectionDegrees,WindSpeedMPH,WindSpeedGustMPH,Humidity,HourlyPrecipIn,Conditions,Clouds,dailyrainin,SolarRadiationWatts/m^2,SoftwareType,DateUTC
2013-07-20 00:02:00,82.0,67.0,-100.00,SSE,149,8.0,14.0,61,0.00,,,0.00,0.000000,,2013-07-20 05:02:00,
2013-07-20 00:32:00,80.0,68.0,-100.00,SE,142,7.0,12.0,66,0.00,,,0.00,0.000000,,2013-07-20 05:32:00,
2013-07-20 00:52:00,80.0,68.0,-100.00,SE,142,7.0,12.0,66,0.00,,,0.00,0.000000,,2013-07-20 05:52:00,
2013-07-20 01:01:00,80.0,68.0,-100.00,SE,142,7.0,12.0,66,0.00,,,0.00,0.000000,,2013-07-20 06:01:00,
2013-07-20 01:32:00,78.0,68.0,-100.00,SE,136,7.0,10.0,71,0.00,,,0.00,0.000000,,2013-07-20 06:32:00,
2013-07-20 01:43:00,78.0,68.0,-100.00,SE,136,7.0,10.0,71,0.00,,,0.00,0.000000,,2013-07-20 06:43:00,
2013-07-20 01:52:00,78.0,68.0,-100.00,SE,136,7.0,10.0,71,0.00,,,0.00,0.000000,,2013-07-20 06:52:00,
2013-07-20 02:01:00,78.0,68.0,-100.00,SE,136,7.0,10.0,71,0.00,,,0.00,0.000000,,2013-07-20 07:01:00,
2013-07-20 02:33:00,77.0,68.0,-100.00,SSE,148,6.0,12.0,75,0.00,,,-99.99,0.000000,,2013-07-20 07:33:00,
2013-07-20 02:44:00,77.0,68.0,-100.00,SSE,148,6.0,12.0,75,0.00,,,-99.99,0.000000,,2013-07-20 07:44:00,
2013-07-20 02:54:00,77.0,68.0,-100.00,SSE,148,6.0,12.0,75,0.00,,,-99.99,0.000000,,2013-07-20 07:54:00,
2013-07-20 03:01:00,77.0,68.0,-100.00,SSE,148,6.0,12.0,75,0.00,,,-99.99,0.000000,,2013-07-20 08:01:00,
2013-07-20 03:32:00,76.0,69.0,-100.00,South,171,5.0,9.0,80,0.00,,,0.00,0.000000,,2013-07-20 08:32:00,
2013-07-20 03:44:00,76.0,69.0,-100.00,South,171,5.0,9.0,80,0.00,,,0.00,0.000000,,2013-07-20 08:44:00,
2013-07-20 03:52:00,76.0,69.0,-100.00,South,171,5.0,9.0,80,0.00,,,0.00,0.000000,,2013-07-20 08:52:00,
2013-07-20 04:02:00,76.0,69.0,-100.00,South,171,5.0,9.0,80,0.00,,,0.00,0.000000,,2013-07-20 09:02:00,
2013-07-20 04:33:00,76.0,69.0,-100.00,South,184,5.0,9.0,80,0.00,,,0.00,0.000000,,2013-07-20 09:33:00,
2013-07-20 04:43:00,76.0,69.0,-100.00,South,184,5.0,9.0,80,0.00,,,0.00,0.000000,,2013-07-20 09:43:00,
2013-07-20 04:53:00,76.0,69.0,-100.00,South,184,5.0,9.0,80,0.00,,,0.00,0.000000,,2013-07-20 09:53:00,
2013-07-20 05:01:00,76.0,69.0,-100.00,South,184,5.0,9.0,80,0.00,,,0.00,0.000000,,2013-07-20 10:01:00,
2013-07-20 05:32:00,74.0,67.0,-100.00,South,184,3.0,7.0,80,0.00,,,0.00,0.000000,,2013-07-20 10:32:00,
2013-07-20 05:42:00,74.0,67.0,-100.00,South,184,3.0,7.0,80,0.00,,,0.00,0.000000,,2013-07-20 10:42:00,
2013-07-20 05:52:00,74.0,67.0,-100.00,South,184,3.0,7.0,80,0.00,,,0.00,0.000000,,2013-07-20 10:52:00,
2013-07-20 06:01:00,74.0,67.0,-100.00,South,184,3.0,7.0,80,0.00,,,0.00,0.000000,,2013-07-20 11:01:00,
2013-07-20 06:32:00,73.0,68.0,-100.00,SSE,149,4.0,6.0,84,0.00,,,0.00,0.000000,,2013-07-20 11:32:00,
2013-07-20 06:43:00,73.0,68.0,-100.00,SSE,149,4.0,6.0,84,0.00,,,0.00,0.000000,,2013-07-20 11:43:00,
2013-07-20 06:52:00,73.0,68.0,-100.00,SSE,149,4.0,6.0,84,0.00,,,0.00,0.000000,,2013-07-20 11:52:00,
2013-07-20 07:01:00,73.0,68.0,-100.00,SSE,149,4.0,6.0,84,0.00,,,0.00,0.000000,,2013-07-20 12:01:00,
2013-07-20 07:32:00,73.0,69.0,-100.00,SSE,149,3.0,7.0,86,0.00,,,0.00,7.000000,,2013-07-20 12:32:00,
2013-07-20 07:52:00,73.0,69.0,-100.00,SSE,149,3.0,7.0,86,0.00,,,0.00,7.000000,,2013-07-20 12:52:00,
2013-07-20 08:01:00,73.0,69.0,-100.00,SSE,149,3.0,7.0,86,0.00,,,0.00,7.000000,,2013-07-20 13:01:00,
2013-07-20 08:32:00,76.0,70.0,-100.00,South,189,6.0,10.0,81,0.00,,,0.00,120.000000,,2013-07-20 13:32:00,
2013-07-20 08:43:00,76.0,70.0,-100.00,South,189,6.0,10.0,81,0.00,,,0.00,120.000000,,2013-07-20 13:43:00,
2013-07-20 08:53:00,76.0,70.0,-100.00,South,189,6.0,10.0,81,0.00,,,0.00,120.000000,,2013-07-20 13:53:00,
2013-07-20 09:02:00,76.0,70.0,-100.00,South,189,6.0,10.0,81,0.00,,,0.00,120.000000,,2013-07-20 14:02:00,
2013-07-20 09:32:00,82.0,71.0,-100.00,SW,224,8.0,14.0,70,0.00,,,0.00,318.000000,,2013-07-20 14:32:00,
2013-07-20 09:43:00,82.0,71.0,-100.00,SW,224,8.0,14.0,70,0.00,,,0.00,318.000000,,2013-07-20 14:43:00,
2013-07-20 09:53:00,82.0,71.0,-100.00,SW,224,8.0,14.0,70,0.00,,,0.00,318.000000,,2013-07-20 14:53:00,
2013-07-20 10:01:00,82.0,71.0,-100.00,SW,224,8.0,14.0,70,0.00,,,0.00,318.000000,,2013-07-20 15:01:00,
2013-07-20 10:33:00,85.0,70.0,-100.00,WSW,245,8.0,13.0,61,0.00,,,0.00,558.000000,,2013-07-20 15:33:00,
2013-07-20 10:44:00,85.0,70.0,-100.00,WSW,245,8.0,13.0,61,0.00,,,0.00,558.000000,,2013-07-20 15:44:00,
2013-07-20 10:53:00,85.0,70.0,-100.00,WSW,245,8.0,13.0,61,0.00,,,0.00,558.000000,,2013-07-20 15:53:00,
2013-07-20 11:01:00,85.0,70.0,-100.00,WSW,245,8.0,13.0,61,0.00,,,0.00,558.000000,,2013-07-20 16:01:00,
2013-07-20 11:32:00,88.0,70.0,-100.00,SW,227,7.0,14.0,56,0.00,,,0.00,766.000000,,2013-07-20 16:32:00,
2013-07-20 11:43:00,88.0,70.0,-100.00,SW,227,7.0,14.0,56,0.00,,,0.00,766.000000,,2013-07-20 16:43:00,
2013-07-20 11:52:00,88.0,70.0,-100.00,SW,227,7.0,14.0,56,0.00,,,0.00,766.000000,,2013-07-20 16:52:00,
2013-07-20 12:02:00,88.0,70.0,-100.00,SW,227,7.0,14.0,56,0.00,,,0.00,766.000000,,2013-07-20 17:02:00,
2013-07-20 12:32:00,91.0,69.0,-100.00,SW,226,7.0,13.0,49,0.00,,,0.00,918.000000,,2013-07-20 17:32:00,
2013-07-20 12:43:00,91.0,69.0,-100.00,SW,226,7.0,13.0,49,0.00,,,0.00,918.000000,,2013-07-20 17:43:00,
2013-07-20 12:53:00,91.0,69.0,-100.00,SW,226,7.0,13.0,49,0.00,,,0.00,918.000000,,2013-07-20 17:53:00,
2013-07-20 13:01:00,91.0,69.0,-100.00,SW,226,7.0,13.0,49,0.00,,,0.00,918.000000,,2013-07-20 18:01:00,
2013-07-20 13:37:00,93.0,66.0,-100.00,SW,234,5.0,11.0,41,0.00,,,0.00,1043.000000,,2013-07-20 18:37:00,
2013-07-20 13:47:00,93.0,66.0,-100.00,SW,234,5.0,11.0,41,0.00,,,0.00,1043.000000,,2013-07-20 18:47:00,
2013-07-20 13:59:00,93.0,66.0,-100.00,SW,234,5.0,11.0,41,0.00,,,0.00,1043.000000,,2013-07-20 18:59:00,
2013-07-20 14:04:00,93.0,66.0,-100.00,SW,234,5.0,11.0,41,0.00,,,0.00,1043.000000,,2013-07-20 19:04:00,
2013-07-20 14:35:00,95.0,66.0,-100.00,SSE,160,6.0,11.0,39,0.00,,,0.00,1092.000000,,2013-07-20 19:35:00,
2013-07-20 14:44:00,95.0,66.0,-100.00,SSE,160,6.0,11.0,39,0.00,,,0.00,1092.000000,,2013-07-20 19:44:00,
2013-07-20 14:56:00,95.0,66.0,-100.00,SSE,160,6.0,11.0,39,0.00,,,0.00,1092.000000,,2013-07-20 19:56:00,
2013-07-20 15:04:00,95.0,66.0,-100.00,SSE,160,6.0,11.0,39,0.00,,,0.00,1092.000000,,2013-07-20 20:04:00,
2013-07-20 15:35:00,96.0,64.0,-100.00,WSW,241,6.0,10.0,35,0.00,,,0.00,688.000000,,2013-07-20 20:35:00,
2013-07-20 15:47:00,96.0,64.0,-100.00,WSW,241,6.0,10.0,35,0.00,,,0.00,688.000000,,2013-07-20 20:47:00,
2013-07-20 15:57:00,96.0,64.0,-100.00,WSW,241,6.0,10.0,35,0.00,,,0.00,688.000000,,2013-07-20 20:57:00,
2013-07-20 16:05:00,85.0,65.0,-100.00,SE,132,12.0,30.0,52,0.00,,,0.00,416.000000,,2013-07-20 21:05:00,
2013-07-20 16:47:00,85.0,65.0,-100.00,SE,132,12.0,30.0,52,0.00,,,0.00,416.000000,,2013-07-20 21:47:00,
2013-07-20 16:56:00,85.0,65.0,-100.00,SE,132,12.0,30.0,52,0.00,,,0.00,416.000000,,2013-07-20 21:56:00,
2013-07-20 17:49:00,83.0,70.0,-100.00,SE,146,7.0,15.0,64,0.00,,,0.00,325.000000,,2013-07-20 22:49:00,
2013-07-20 17:56:00,83.0,70.0,-100.00,SE,146,7.0,15.0,64,0.00,,,0.00,325.000000,,2013-07-20 22:56:00,
2013-07-20 18:03:00,83.0,70.0,-100.00,SE,146,7.0,15.0,64,0.00,,,0.00,325.000000,,2013-07-20 23:03:00,
2013-07-20 18:05:00,88.0,71.0,-100.00,SSE,163,7.0,12.0,57,-99.99,,,0.00,366.000000,,2013-07-20 23:05:00,
2013-07-20 18:39:00,88.0,71.0,-100.00,SSE,163,7.0,12.0,57,-99.99,,,0.00,366.000000,,2013-07-20 23:39:00,
2013-07-20 18:46:00,88.0,71.0,-100.00,SSE,163,7.0,12.0,57,-99.99,,,0.00,366.000000,,2013-07-20 23:46:00,
2013-07-20 18:56:00,88.0,71.0,-100.00,SSE,163,7.0,12.0,57,-99.99,,,0.00,366.000000,,2013-07-20 23:56:00,
2013-07-20 19:05:00,88.0,68.0,-100.00,ESE,104,5.0,9.0,51,0.00,,,0.00,364.000000,,2013-07-21 00:05:00,
2013-07-20 19:45:00,88.0,68.0,-100.00,ESE,104,5.0,9.0,51,0.00,,,0.00,364.000000,,2013-07-21 00:45:00,
2013-07-20 19:56:00,88.0,68.0,-100.00,ESE,104,5.0,9.0,51,0.00,,,0.00,364.000000,,2013-07-21 00:56:00,
2013-07-20 20:49:00,-999.0,-99.9,-100.00,SE,129,9.0,14.0,-999,-99.99,,,-99.99,189.000000,,2013-07-21 01:49:00,
2013-07-20 20:59:00,86.0,66.0,-100.00,SE,129,9.0,14.0,52,0.00,,,0.00,189.000000,,2013-07-21 01:59:00,
2013-07-20 21:46:00,80.0,68.0,-100.00,ESE,114,5.0,16.0,67,0.00,,,0.00,19.000000,,2013-07-21 02:46:00,
2013-07-20 21:58:00,80.0,68.0,-100.00,ESE,114,5.0,16.0,67,0.00,,,0.00,19.000000,,2013-07-21 02:58:00,
2013-07-20 22:37:00,79.0,68.0,-100.00,SE,137,6.0,11.0,70,0.00,,,0.00,0.000000,,2013-07-21 03:37:00,
2013-07-20 22:47:00,79.0,68.0,-100.00,SE,137,6.0,11.0,70,0.00,,,0.00,0.000000,,2013-07-21 03:47:00,
2013-07-20 22:59:00,79.0,68.0,-100.00,SE,137,6.0,11.0,70,0.00,,,0.00,0.000000,,2013-07-21 03:59:00,
2013-07-20 23:01:00,79.0,68.0,-100.00,SE,137,6.0,11.0,70,0.00,,,0.00,0.000000,,2013-07-21 04:01:00,
2013-07-20 23:32:00,79.0,69.0,-100.00,SE,132,8.0,12.0,72,0.00,,,0.00,0.000000,,2013-07-21 04:32:00,
2013-07-20 23:43:00,79.0,69.0,-100.00,SE,132,8.0,12.0,72,0.00,,,0.00,0.000000,,2013-07-21 04:43:00,
2013-07-20 23:53:00,79.0,69.0,-100.00,SE,132,8.0,12.0,72,0.00,,,0.00,0.000000,,2013-07-21 04:53:00,